Time,TemperatureF,DewpointF,PressureIn,WindDirection,WindDirectionDegrees,WindSpeedMPH,WindSpeedGustMPH,Humidity,HourlyPrecipIn,Conditions,Clouds,dailyrainin,SoftwareType,DateUTC
2013-07-24 00:01:00,66.0,65.4,28.82,North,0,0.0,0.0,98,0.00,,,0.00,WUHU216WMR100,2013-07-24 04:01:00,
2013-07-24 00:06:00,66.2,65.6,28.79,North,0,0.0,0.0,98,0.00,,,0.00,WUHU216WMR100,2013-07-24 04:06:00,
2013-07-24 00:11:00,66.0,65.4,28.79,North,0,0.0,0.0,98,0.00,,,0.00,WUHU216WMR100,2013-07-24 04:11:00,
2013-07-24 00:16:00,66.0,65.4,28.79,North,0,0.0,0.0,98,0.00,,,0.00,WUHU216WMR100,2013-07-24 04:16:00,
2013-07-24 00:21:00,66.0,65.4,28.82,North,0,0.0,0.0,98,0.00,,,0.00,WUHU216WMR100,2013-07-24 04:21:00,
2013-07-24 00:26:00,66.2,65.6,28.82,North,0,0.0,0.0,98,0.00,,,0.00,WUHU216WMR100,2013-07-24 04:26:00,
2013-07-24 00:31:00,66.2,65.6,28.82,North,0,0.0,0.0,98,0.00,,,0.00,WUHU216WMR100,2013-07-24 04:31:00,
2013-07-24 00:36:00,66.2,65.6,28.82,North,0,0.0,0.0,98,0.00,,,0.00,WUHU216WMR100,2013-07-24 04:36:00,
2013-07-24 00:41:00,66.2,65.6,28.82,North,0,0.0,0.0,98,0.00,,,0.00,WUHU216WMR100,2013-07-24 04:41:00,
2013-07-24 00:46:00,66.6,66.0,28.82,North,0,0.0,0.0,98,0.00,,,0.00,WUHU216WMR100,2013-07-24 04:46:00,
2013-07-24 00:51:00,66.7,66.1,28.82,North,0,0.0,0.0,98,0.00,,,0.00,WUHU216WMR100,2013-07-24 04:51:00,
2013-07-24 00:56:00,66.7,66.1,28.82,North,0,0.0,0.0,98,0.00,,,0.00,WUHU216WMR100,2013-07-24 04:56:00,
2013-07-24 01:01:00,66.9,66.3,28.82,North,0,0.0,0.0,98,0.00,,,0.00,WUHU216WMR100,2013-07-24 05:01:00,
2013-07-24 01:06:00,66.9,66.3,28.82,North,0,0.0,0.0,98,0.00,,,0.00,WUHU216WMR100,2013-07-24 05:06:00,
2013-07-24 01:11:00,66.9,66.3,28.82,North,0,0.0,0.0,98,0.00,,,0.00,WUHU216WMR100,2013-07-24 05:11:00,
2013-07-24 01:16:00,66.9,66.3,28.82,North,0,0.0,0.0,98,0.00,,,0.00,WUHU216WMR100,2013-07-24 05:16:00,
2013-07-24 01:21:00,66.9,66.3,28.82,North,0,0.0,0.0,98,0.00,,,0.00,WUHU216WMR100,2013-07-24 05:21:00,
2013-07-24 01:26:00,66.9,66.3,28.82,North,0,0.0,0.0,98,0.00,,,0.00,WUHU216WMR100,2013-07-24 05:26:00,
2013-07-24 01:31:00,66.9,66.3,28.82,North,0,0.0,0.0,98,0.00,,,0.00,WUHU216WMR100,2013-07-24 05:31:00,
2013-07-24 01:36:00,66.9,66.3,28.82,North,0,0.0,0.0,98,0.00,,,0.00,WUHU216WMR100,2013-07-24 05:36:00,
2013-07-24 01:41:00,67.1,66.5,28.82,North,0,0.0,0.0,98,0.00,,,0.00,WUHU216WMR100,2013-07-24 05:41:00,
2013-07-24 01:46:00,67.1,66.5,28.82,North,0,0.0,0.0,98,0.00,,,0.00,WUHU216WMR100,2013-07-24 05:46:00,
2013-07-24 01:51:00,67.3,66.7,28.82,North,0,0.0,0.0,98,0.00,,,0.00,WUHU216WMR100,2013-07-24 05:51:00,
2013-07-24 01:56:00,67.1,66.5,28.82,North,0,0.0,0.0,98,0.00,,,0.00,WUHU216WMR100,2013-07-24 05:56:00,
2013-07-24 02:03:00,66.9,66.3,28.82,East,90,2.7,3.6,98,0.00,,,0.00,WUHU216WMR100,2013-07-24 06:03:00,
2013-07-24 02:08:00,66.7,66.1,28.82,North,357,1.7,6.3,98,0.00,,,0.00,WUHU216WMR100,2013-07-24 06:08:00,
2013-07-24 02:13:00,66.6,66.0,28.82,ENE,67,1.9,6.3,98,0.00,,,0.00,WUHU216WMR100,2013-07-24 06:13:00,
2013-07-24 02:18:00,66.6,66.0,28.85,North,0,2.9,4.9,98,0.00,,,0.00,WUHU216WMR100,2013-07-24 06:18:00,
2013-07-24 02:23:00,66.4,65.8,28.85,East,90,0.5,4.9,98,0.00,,,0.00,WUHU216WMR100,2013-07-24 06:23:00,
2013-07-24 02:28:00,66.4,65.8,28.85,East,90,2.7,4.0,98,0.00,,,0.00,WUHU216WMR100,2013-07-24 06:28:00,
2013-07-24 02:33:00,66.2,65.6,28.82,ENE,67,0.9,4.0,98,0.00,,,0.00,WUHU216WMR100,2013-07-24 06:33:00,
2013-07-24 02:38:00,66.0,65.4,28.82,NNW,337,0.0,3.1,98,0.00,,,0.00,WUHU216WMR100,2013-07-24 06:38:00,
2013-07-24 02:43:00,66.0,65.4,28.82,East,90,2.5,5.6,98,0.00,,,0.00,WUHU216WMR100,2013-07-24 06:43:00,
2013-07-24 02:48:00,65.8,65.2,28.82,NNE,22,3.8,5.6,98,0.00,,,0.00,WUHU216WMR100,2013-07-24 06:48:00,
2013-07-24 02:53:00,65.8,64.6,28.82,ENE,67,2.7,5.6,96,0.00,,,0.00,WUHU216WMR100,2013-07-24 06:53:00,
2013-07-24 02:58:00,65.8,64.6,28.82,SE,135,1.6,4.3,96,0.00,,,0.00,WUHU216WMR100,2013-07-24 06:58:00,
2013-07-24 03:03:00,65.8,64.6,28.85,NE,38,1.6,3.4,96,0.00,,,0.00,WUHU216WMR100,2013-07-24 07:03:00,
2013-07-24 03:08:00,65.8,64.3,28.85,NNW,337,2.3,4.5,95,0.00,,,0.00,WUHU216WMR100,2013-07-24 07:08:00,
2013-07-24 03:13:00,65.7,64.2,28.85,NE,45,0.9,4.5,95,0.00,,,0.00,WUHU216WMR100,2013-07-24 07:13:00,
2013-07-24 03:18:00,65.7,64.2,28.82,North,0,0.0,2.9,95,0.00,,,0.00,WUHU216WMR100,2013-07-24 07:18:00,
2013-07-24 03:23:00,65.5,64.0,28.82,NNE,22,1.1,2.5,95,0.00,,,0.00,WUHU216WMR100,2013-07-24 07:23:00,
2013-07-24 03:28:00,65.5,64.0,28.82,NNE,22,0.5,3.4,95,0.00,,,0.00,WUHU216WMR100,2013-07-24 07:28:00,
2013-07-24 03:33:00,65.5,64.0,28.82,NNE,22,1.2,3.4,95,0.00,,,0.00,WUHU216WMR100,2013-07-24 07:33:00,
2013-07-24 03:38:00,65.5,63.4,28.82,NE,45,2.2,4.0,93,0.00,,,0.00,WUHU216WMR100,2013-07-24 07:38:00,
2013-07-24 03:43:00,65.5,63.1,28.82,NNE,22,0.5,4.0,92,0.00,,,0.00,WUHU216WMR100,2013-07-24 07:43:00,
2013-07-24 03:48:00,65.3,62.6,28.82,NNE,22,2.5,4.0,91,0.00,,,0.00,WUHU216WMR100,2013-07-24 07:48:00,
2013-07-24 03:53:00,65.3,62.6,28.82,NNW,342,1.8,4.0,91,0.00,,,0.00,WUHU216WMR100,2013-07-24 07:53:00,
2013-07-24 03:58:00,65.1,62.4,28.82,North,0,1.9,3.8,91,0.00,,,0.00,WUHU216WMR100,2013-07-24 07:58:00,
2013-07-24 04:03:00,65.1,61.8,28.82,ENE,67,2.0,3.8,89,0.00,,,0.00,WUHU216WMR100,2013-07-24 08:03:00,
2013-07-24 04:08:00,64.9,60.6,28.82,North,0,4.3,6.0,86,0.00,,,0.00,WUHU216WMR100,2013-07-24 08:08:00,
2013-07-24 04:13:00,64.9,60.3,28.82,ENE,58,2.7,6.0,85,0.00,,,0.00,WUHU216WMR100,2013-07-24 08:13:00,
2013-07-24 04:18:00,64.8,60.8,28.82,ENE,67,1.1,6.0,87,0.00,,,0.00,WUHU216WMR100,2013-07-24 08:18:00,
2013-07-24 04:23:00,64.6,59.7,28.82,ENE,67,2.9,6.0,84,0.00,,,0.00,WUHU216WMR100,2013-07-24 08:23:00,
2013-07-24 04:28:00,64.6,59.0,28.82,East,82,3.2,5.8,82,0.00,,,0.00,WUHU216WMR100,2013-07-24 08:28:00,
2013-07-24 04:33:00,64.6,58.7,28.82,NE,41,2.9,5.8,81,0.00,,,0.00,WUHU216WMR100,2013-07-24 08:33:00,
2013-07-24 04:39:00,64.6,59.0,28.82,NE,37,1.7,5.4,82,0.00,,,0.00,WUHU216WMR100,2013-07-24 08:39:00,
2013-07-24 04:44:00,64.4,58.8,28.82,ESE,112,0.9,5.8,82,0.00,,,0.00,WUHU216WMR100,2013-07-24 08:44:00,
2013-07-24 04:49:00,64.4,58.8,28.85,ENE,60,1.5,5.8,82,0.00,,,0.00,WUHU216WMR100,2013-07-24 08:49:00,
2013-07-24 04:54:00,64.4,59.2,28.85,NNE,22,0.0,3.6,83,0.00,,,0.00,WUHU216WMR100,2013-07-24 08:54:00,
2013-07-24 04:59:00,64.2,59.3,28.85,ESE,112,1.6,3.6,84,0.00,,,0.00,WUHU216WMR100,2013-07-24 08:59:00,
2013-07-24 05:04:00,64.2,59.0,28.85,East,89,1.7,4.3,83,0.00,,,0.00,WUHU216WMR100,2013-07-24 09:04:00,
2013-07-24 05:09:00,64.2,59.0,28.85,ENE,67,1.6,4.3,83,0.00,,,0.00,WUHU216WMR100,2013-07-24 09:09:00,
2013-07-24 05:14:00,64.0,58.4,28.85,ENE,67,2.9,3.6,82,0.00,,,0.00,WUHU216WMR100,2013-07-24 09:14:00,
2013-07-24 05:19:00,64.0,58.8,28.85,West,270,1.3,3.8,83,0.00,,,0.00,WUHU216WMR100,2013-07-24 09:19:00,
2013-07-24 05:24:00,63.9,58.7,28.85,ENE,67,0.6,3.8,83,0.00,,,0.00,WUHU216WMR100,2013-07-24 09:24:00,
2013-07-24 05:29:00,63.9,58.7,28.85,NNW,337,1.6,3.4,83,0.00,,,0.00,WUHU216WMR100,2013-07-24 09:29:00,
2013-07-24 05:34:00,63.7,58.1,28.85,ENE,62,2.8,4.3,82,0.00,,,0.00,WUHU216WMR100,2013-07-24 09:34:00,
2013-07-24 05:39:00,63.7,58.1,28.85,North,5,1.8,4.3,82,0.00,,,0.00,WUHU216WMR100,2013-07-24 09:39:00,
2013-07-24 05:44:00,63.5,58.0,28.85,NNE,28,1.8,4.0,82,0.00,,,0.00,WUHU216WMR100,2013-07-24 09:44:00,
2013-07-24 05:49:00,63.5,58.0,28.85,East,90,1.6,3.6,82,0.00,,,0.00,WUHU216WMR100,2013-07-24 09:49:00,
2013-07-24 05:54:00,63.3,57.8,28.85,ENE,67,1.4,4.7,82,0.00,,,0.00,WUHU216WMR100,2013-07-24 09:54:00,
2013-07-24 05:59:00,63.1,57.6,28.85,East,90,0.8,4.7,82,0.00,,,0.00,WUHU216WMR100,2013-07-24 09:59:00,
2013-07-24 06:04:00,63.0,57.5,28.85,NNE,22,0.9,3.8,82,0.00,,,0.00,WUHU216WMR100,2013-07-24 10:04:00,
2013-07-24 06:09:00,62.8,57.3,28.85,NNW,337,2.0,3.8,82,0.00,,,0.00,WUHU216WMR100,2013-07-24 10:09:00,
2013-07-24 06:14:00,62.6,57.1,28.85,NNW,337,1.8,3.8,82,0.00,,,0.00,WUHU216WMR100,2013-07-24 10:14:00,
2013-07-24 06:19:00,62.6,57.4,28.88,NNW,337,0.6,3.4,83,0.00,,,0.00,WUHU216WMR100,2013-07-24 10:19:00,
2013-07-24 06:24:00,62.2,57.0,28.88,NNW,337,2.7,4.3,83,0.00,,,0.00,WUHU216WMR100,2013-07-24 10:24:00,
2013-07-24 06:29:00,62.2,57.0,28.88,NNW,337,0.9,4.3,83,0.00,,,0.00,WUHU216WMR100,2013-07-24 10:29:00,
2013-07-24 06:34:00,62.2,57.0,28.88,NNW,337,1.3,2.9,83,0.00,,,0.00,WUHU216WMR100,2013-07-24 10:34:00,
2013-07-24 06:39:00,61.9,57.0,28.88,NNW,337,0.0,2.9,84,0.00,,,0.00,WUHU216WMR100,2013-07-24 10:39:00,
2013-07-24 06:44:00,61.9,57.0,28.88,NNW,337,0.0,1.6,84,0.00,,,0.00,WUHU216WMR100,2013-07-24 10:44:00,
2013-07-24 06:49:00,61.7,57.2,28.88,NNW,337,0.2,1.6,85,0.00,,,0.00,WUHU216WMR100,2013-07-24 10:49:00,
2013-07-24 06:54:00,61.7,57.2,28.88,NNW,337,0.7,2.2,85,0.00,,,0.00,WUHU216WMR100,2013-07-24 10:54:00,
2013-07-24 06:59:00,61.7,57.2,28.88,NNW,337,0.0,2.2,85,0.00,,,0.00,WUHU216WMR100,2013-07-24 10:59:00,
2013-07-24 07:04:00,61.7,57.2,28.88,NNW,337,0.0,1.6,85,0.00,,,0.00,WUHU216WMR100,2013-07-24 11:04:00,
2013-07-24 07:09:00,62.4,58.2,28.88,NNW,337,2.5,3.1,86,0.00,,,0.00,WUHU216WMR100,2013-07-24 11:09:00,
2013-07-24 07:14:00,63.3,59.0,28.88,NNW,337,0.1,3.1,86,0.00,,,0.00,WUHU216WMR100,2013-07-24 11:14:00,
2013-07-24 07:19:00,63.9,59.3,28.88,NNW,337,1.1,2.5,85,0.00,,,0.00,WUHU216WMR100,2013-07-24 11:19:00,
2013-07-24 07:24:00,64.6,59.0,28.88,NNW,337,1.4,3.1,82,0.00,,,0.00,WUHU216WMR100,2013-07-24 11:24:00,
2013-07-24 07:29:00,65.1,58.5,28.88,East,90,1.1,3.1,79,0.00,,,0.00,WUHU216WMR100,2013-07-24 11:29:00,
2013-07-24 07:34:00,65.5,58.9,28.88,East,90,1.0,3.1,79,0.00,,,0.00,WUHU216WMR100,2013-07-24 11:34:00,
2013-07-24 07:39:00,66.0,58.7,28.88,North,0,0.0,2.9,77,0.00,,,0.00,WUHU216WMR100,2013-07-24 11:39:00,
2013-07-24 07:44:00,66.4,58.0,28.88,North,0,1.6,2.9,74,0.00,,,0.00,WUHU216WMR100,2013-07-24 11:44:00,
2013-07-24 07:49:00,66.9,58.1,28.88,North,0,0.2,2.9,73,0.00,,,0.00,WUHU216WMR100,2013-07-24 11:49:00,
2013-07-24 07:54:00,66.9,56.2,28.88,ESE,112,2.5,3.8,68,0.00,,,0.00,WUHU216WMR100,2013-07-24 11:54:00,
2013-07-24 07:59:00,67.3,54.9,28.88,East,90,3.1,4.3,64,0.00,,,0.00,WUHU216WMR100,2013-07-24 11:59:00,
2013-07-24 08:04:00,67.8,56.2,28.88,NNE,22,2.2,4.3,66,0.00,,,0.00,WUHU216WMR100,2013-07-24 12:04:00,
2013-07-24 08:09:00,67.8,56.2,28.88,NNW,337,1.1,3.1,66,0.00,,,0.00,WUHU216WMR100,2013-07-24 12:09:00,
2013-07-24 08:14:00,67.5,55.5,28.88,ENE,67,0.1,4.5,65,0.00,,,0.00,WUHU216WMR100,2013-07-24 12:14:00,
2013-07-24 08:19:00,67.1,52.4,28.91,North,352,3.9,6.3,59,0.00,,,0.00,WUHU216WMR100,2013-07-24 12:19:00,
2013-07-24 08:24:00,66.9,53.6,28.91,SSE,157,2.1,6.3,62,0.00,,,0.00,WUHU216WMR100,2013-07-24 12:24:00,
2013-07-24 08:29:00,67.1,52.4,28.91,NW,315,2.5,6.3,59,0.00,,,0.00,WUHU216WMR100,2013-07-24 12:29:00,
2013-07-24 08:34:00,67.1,52.4,28.91,North,355,3.0,6.3,59,0.00,,,0.00,WUHU216WMR100,2013-07-24 12:34:00,
2013-07-24 08:39:00,66.9,52.7,28.91,NNW,337,2.5,6.3,60,0.00,,,0.00,WUHU216WMR100,2013-07-24 12:39:00,
2013-07-24 08:44:00,66.6,52.4,28.91,NNW,337,2.9,5.6,60,0.00,,,0.00,WUHU216WMR100,2013-07-24 12:44:00,
2013-07-24 08:49:00,66.2,52.1,28.91,West,270,3.4,5.6,60,0.00,,,0.00,WUHU216WMR100,2013-07-24 12:49:00,
2013-07-24 08:54:00,66.0,52.3,28.91,NNW,337,3.1,5.4,61,0.00,,,0.00,WUHU216WMR100,2013-07-24 12:54:00,
2013-07-24 08:59:00,65.8,52.1,28.91,NNE,22,2.0,4.3,61,0.00,,,0.00,WUHU216WMR100,2013-07-24 12:59:00,
2013-07-24 09:04:00,66.4,52.7,28.94,North,9,1.8,3.4,61,0.00,,,0.00,WUHU216WMR100,2013-07-24 13:04:00,
2013-07-24 09:09:00,67.5,52.4,28.94,SSE,157,3.0,8.5,58,0.00,,,0.00,WUHU216WMR100,2013-07-24 13:09:00,
2013-07-24 09:15:00,67.6,51.0,28.94,North,0,4.0,8.5,55,0.00,,,0.00,WUHU216WMR100,2013-07-24 13:15:00,
2013-07-24 09:20:00,67.8,50.1,28.94,NE,54,3.1,8.5,53,0.00,,,0.00,WUHU216WMR100,2013-07-24 13:20:00,
2013-07-24 09:25:00,68.5,51.8,28.94,NNW,337,1.3,6.0,55,0.00,,,0.00,WUHU216WMR100,2013-07-24 13:25:00,
2013-07-24 09:30:00,68.7,49.9,28.94,North,4,3.4,7.4,51,0.00,,,0.00,WUHU216WMR100,2013-07-24 13:30:00,
2013-07-24 09:35:00,69.1,50.3,28.94,ENE,67,1.6,7.4,51,0.00,,,0.00,WUHU216WMR100,2013-07-24 13:35:00,
2013-07-24 09:40:00,68.9,50.1,28.94,NE,36,3.0,5.6,51,0.00,,,0.00,WUHU216WMR100,2013-07-24 13:40:00,
2013-07-24 09:45:00,69.4,51.6,28.94,NNW,337,0.0,5.6,53,0.00,,,0.00,WUHU216WMR100,2013-07-24 13:45:00,
2013-07-24 09:50:00,69.3,48.8,28.94,NNW,343,3.4,6.3,48,0.00,,,0.00,WUHU216WMR100,2013-07-24 13:50:00,
2013-07-24 09:55:00,69.6,50.2,28.94,ENE,65,1.7,6.3,50,0.00,,,0.00,WUHU216WMR100,2013-07-24 13:55:00,
2013-07-24 10:00:00,70.0,50.6,28.94,NNE,22,2.8,7.6,50,0.00,,,0.00,WUHU216WMR100,2013-07-24 14:00:00,
2013-07-24 10:05:00,70.3,50.3,28.94,NNW,337,2.6,7.6,49,0.00,,,0.00,WUHU216WMR100,2013-07-24 14:05:00,
2013-07-24 10:10:00,71.8,51.1,28.94,ENE,67,2.9,4.0,48,0.00,,,0.00,WUHU216WMR100,2013-07-24 14:10:00,
2013-07-24 10:15:00,71.6,49.7,28.94,ENE,75,1.9,4.0,46,0.00,,,0.00,WUHU216WMR100,2013-07-24 14:15:00,
2013-07-24 10:20:00,72.3,49.1,28.94,NNW,344,4.2,6.9,44,0.00,,,0.00,WUHU216WMR100,2013-07-24 14:20:00,
2013-07-24 10:25:00,72.9,48.4,28.94,ENE,67,6.0,10.1,42,0.00,,,0.00,WUHU216WMR100,2013-07-24 14:25:00,
2013-07-24 10:30:00,71.6,47.2,28.94,SE,134,3.2,10.1,42,0.00,,,0.00,WUHU216WMR100,2013-07-24 14:30:00,
2013-07-24 10:35:00,71.6,48.5,28.94,North,352,2.8,6.3,44,0.00,,,0.00,WUHU216WMR100,2013-07-24 14:35:00,
2013-07-24 10:40:00,71.4,48.3,28.94,NNW,344,2.5,7.4,44,0.00,,,0.00,WUHU216WMR100,2013-07-24 14:40:00,
2013-07-24 10:45:00,73.0,49.8,28.94,NNE,22,1.9,7.4,44,0.00,,,0.00,WUHU216WMR100,2013-07-24 14:45:00,
2013-07-24 10:50:00,72.5,48.0,28.94,NE,47,3.2,7.2,42,0.00,,,0.00,WUHU216WMR100,2013-07-24 14:50:00,
2013-07-24 10:55:00,72.0,47.6,28.94,ENE,61,4.0,5.8,42,0.00,,,0.00,WUHU216WMR100,2013-07-24 14:55:00,
2013-07-24 11:00:00,73.8,45.8,28.94,North,0,3.6,5.8,37,0.00,,,0.00,WUHU216WMR100,2013-07-24 15:00:00,
2013-07-24 11:05:00,73.2,46.6,28.94,NE,45,3.6,6.0,39,0.00,,,0.00,WUHU216WMR100,2013-07-24 15:05:00,
2013-07-24 11:10:00,72.1,45.6,28.94,WNW,292,4.3,10.1,39,0.00,,,0.00,WUHU216WMR100,2013-07-24 15:10:00,
2013-07-24 11:15:00,72.1,47.0,28.94,NNE,16,4.4,10.1,41,0.00,,,0.00,WUHU216WMR100,2013-07-24 15:15:00,
2013-07-24 11:20:00,72.0,46.9,28.94,WNW,292,2.2,8.1,41,0.00,,,0.00,WUHU216WMR100,2013-07-24 15:20:00,
2013-07-24 11:25:00,70.7,46.4,28.94,WNW,292,6.0,9.6,42,0.00,,,0.00,WUHU216WMR100,2013-07-24 15:25:00,
2013-07-24 11:30:00,72.5,48.7,28.94,North,0,4.7,9.6,43,0.00,,,0.00,WUHU216WMR100,2013-07-24 15:30:00,
2013-07-24 11:35:00,74.5,49.2,28.94,NE,41,2.7,7.6,41,0.00,,,0.00,WUHU216WMR100,2013-07-24 15:35:00,
2013-07-24 11:40:00,73.2,48.7,28.94,NE,48,4.1,8.7,42,0.00,,,0.00,WUHU216WMR100,2013-07-24 15:40:00,
2013-07-24 11:45:00,72.5,48.7,28.94,North,7,2.2,8.7,43,0.00,,,0.00,WUHU216WMR100,2013-07-24 15:45:00,
2013-07-24 11:50:00,72.3,47.2,28.94,NNW,337,4.0,6.3,41,0.00,,,0.00,WUHU216WMR100,2013-07-24 15:50:00,
2013-07-24 11:55:00,72.3,46.5,28.94,North,0,2.9,6.3,40,0.00,,,0.00,WUHU216WMR100,2013-07-24 15:55:00,
2013-07-24 12:00:00,71.8,45.4,28.94,NNW,337,4.0,6.3,39,0.00,,,0.00,WUHU216WMR100,2013-07-24 16:00:00,
2013-07-24 12:05:00,72.0,46.2,28.94,NE,45,2.7,6.3,40,0.00,,,0.00,WUHU216WMR100,2013-07-24 16:05:00,
2013-07-24 12:10:00,72.0,47.6,28.94,NE,36,1.9,4.3,42,0.00,,,0.00,WUHU216WMR100,2013-07-24 16:10:00,
2013-07-24 12:15:00,72.9,48.4,28.94,North,0,2.5,4.9,42,0.00,,,0.00,WUHU216WMR100,2013-07-24 16:15:00,
2013-07-24 12:21:00,71.6,45.2,28.94,North,359,4.9,10.5,39,0.00,,,0.00,WUHU216WMR100,2013-07-24 16:21:00,
2013-07-24 12:26:00,71.6,45.2,28.94,NNW,342,3.8,10.5,39,0.00,,,0.00,WUHU216WMR100,2013-07-24 16:26:00,
2013-07-24 12:32:00,71.6,45.2,28.94,NE,45,3.8,8.9,39,0.00,,,0.00,WUHU216WMR100,2013-07-24 16:32:00,
2013-07-24 12:37:00,72.9,46.4,28.94,East,87,2.8,8.9,39,0.00,,,0.00,WUHU216WMR100,2013-07-24 16:37:00,
2013-07-24 12:42:00,72.5,43.9,28.94,East,90,4.3,6.9,36,0.00,,,0.00,WUHU216WMR100,2013-07-24 16:42:00,
2013-07-24 12:47:00,74.8,46.6,28.94,East,91,2.1,6.9,37,0.00,,,0.00,WUHU216WMR100,2013-07-24 16:47:00,
2013-07-24 12:52:00,73.8,44.3,28.97,North,351,3.7,10.3,35,0.00,,,0.00,WUHU216WMR100,2013-07-24 16:52:00,
2013-07-24 12:57:00,74.1,45.3,28.97,ESE,112,3.8,10.3,36,0.00,,,0.00,WUHU216WMR100,2013-07-24 16:57:00,
2013-07-24 13:02:00,73.9,45.1,28.97,East,90,3.1,7.2,36,0.00,,,0.00,WUHU216WMR100,2013-07-24 17:02:00,
2013-07-24 13:07:00,73.6,44.1,28.97,ENE,67,4.5,7.2,35,0.00,,,0.00,WUHU216WMR100,2013-07-24 17:07:00,
2013-07-24 13:12:00,75.4,47.2,28.97,North,8,2.6,7.2,37,0.00,,,0.00,WUHU216WMR100,2013-07-24 17:12:00,
2013-07-24 13:17:00,74.5,44.1,28.97,North,359,4.4,8.7,34,0.00,,,0.00,WUHU216WMR100,2013-07-24 17:17:00,
2013-07-24 13:22:00,76.6,46.0,28.97,NNW,337,2.9,8.7,34,0.00,,,0.00,WUHU216WMR100,2013-07-24 17:22:00,
2013-07-24 13:27:00,77.5,46.0,28.97,NNE,17,3.8,7.6,33,0.00,,,0.00,WUHU216WMR100,2013-07-24 17:27:00,
2013-07-24 13:32:00,79.3,45.9,28.97,ENE,67,3.6,7.6,31,0.00,,,0.00,WUHU216WMR100,2013-07-24 17:32:00,
2013-07-24 13:37:00,76.8,44.5,28.97,NNW,348,3.0,6.0,32,0.00,,,0.00,WUHU216WMR100,2013-07-24 17:37:00,
2013-07-24 13:42:00,75.2,44.7,28.97,ENE,64,2.7,6.0,34,0.00,,,0.00,WUHU216WMR100,2013-07-24 17:42:00,
2013-07-24 13:47:00,75.4,44.9,28.97,NNW,346,4.6,7.8,34,0.00,,,0.00,WUHU216WMR100,2013-07-24 17:47:00,
2013-07-24 13:52:00,75.4,44.1,28.97,SE,134,2.6,7.8,33,0.00,,,0.00,WUHU216WMR100,2013-07-24 17:52:00,
2013-07-24 13:57:00,76.5,45.9,28.97,NNE,22,4.9,6.0,34,0.00,,,0.00,WUHU216WMR100,2013-07-24 17:57:00,
2013-07-24 14:02:00,77.4,45.9,28.97,NNE,22,2.2,8.5,33,0.00,,,0.00,WUHU216WMR100,2013-07-24 18:02:00,
2013-07-24 14:07:00,76.1,44.7,28.97,NE,49,3.1,8.5,33,0.00,,,0.00,WUHU216WMR100,2013-07-24 18:07:00,
2013-07-24 14:13:00,74.7,44.3,28.97,NNE,32,2.3,5.4,34,0.00,,,0.00,WUHU216WMR100,2013-07-24 18:13:00,
2013-07-24 14:18:00,75.6,43.5,28.97,East,90,4.3,9.4,32,0.00,,,0.00,WUHU216WMR100,2013-07-24 18:18:00,
2013-07-24 14:23:00,74.3,43.9,28.97,North,7,3.2,9.4,34,0.00,,,0.00,WUHU216WMR100,2013-07-24 18:23:00,
2013-07-24 14:28:00,75.0,43.8,28.97,East,90,4.3,6.3,33,0.00,,,0.00,WUHU216WMR100,2013-07-24 18:28:00,
2013-07-24 14:33:00,76.5,43.4,28.97,NE,42,4.6,8.1,31,0.00,,,0.00,WUHU216WMR100,2013-07-24 18:33:00,
2013-07-24 14:38:00,75.4,42.5,28.97,ESE,112,5.4,8.1,31,0.00,,,0.00,WUHU216WMR100,2013-07-24 18:38:00,
2013-07-24 14:43:00,72.9,41.9,28.97,ESE,112,4.0,10.1,33,0.00,,,0.00,WUHU216WMR100,2013-07-24 18:43:00,
2013-07-24 14:48:00,73.8,43.5,28.97,NNW,337,2.9,10.1,34,0.00,,,0.00,WUHU216WMR100,2013-07-24 18:48:00,
2013-07-24 14:53:00,77.5,45.2,28.97,North,0,4.5,10.1,32,0.00,,,0.00,WUHU216WMR100,2013-07-24 18:53:00,
2013-07-24 14:58:00,75.6,42.7,28.97,ENE,67,4.3,8.5,31,0.00,,,0.00,WUHU216WMR100,2013-07-24 18:58:00,
2013-07-24 15:03:00,74.5,42.5,28.97,East,94,3.6,6.3,32,0.00,,,0.00,WUHU216WMR100,2013-07-24 19:03:00,
2013-07-24 15:08:00,76.8,44.5,28.97,North,0,2.7,6.0,32,0.00,,,0.00,WUHU216WMR100,2013-07-24 19:08:00,
2013-07-24 15:13:00,79.0,44.8,28.97,NE,45,4.5,6.9,30,0.00,,,0.00,WUHU216WMR100,2013-07-24 19:13:00,
2013-07-24 15:18:00,79.0,45.6,28.97,NE,35,2.3,6.9,31,0.00,,,0.00,WUHU216WMR100,2013-07-24 19:18:00,
2013-07-24 15:23:00,80.4,46.0,28.97,NNW,327,3.7,6.0,30,0.00,,,0.00,WUHU216WMR100,2013-07-24 19:23:00,
2013-07-24 15:28:00,78.6,42.6,28.97,North,0,4.0,6.0,28,0.00,,,0.00,WUHU216WMR100,2013-07-24 19:28:00,
2013-07-24 15:33:00,76.3,43.3,28.97,North,354,3.0,5.8,31,0.00,,,0.00,WUHU216WMR100,2013-07-24 19:33:00,
2013-07-24 15:38:00,78.3,44.2,28.97,ESE,112,4.3,6.3,30,0.00,,,0.00,WUHU216WMR100,2013-07-24 19:38:00,
2013-07-24 15:43:00,79.3,45.0,28.97,NE,45,2.2,6.5,30,0.00,,,0.00,WUHU216WMR100,2013-07-24 19:43:00,
2013-07-24 15:48:00,79.9,44.7,28.97,ENE,67,4.2,7.8,29,0.00,,,0.00,WUHU216WMR100,2013-07-24 19:48:00,
2013-07-24 15:53:00,78.1,44.0,28.97,ENE,59,4.1,7.8,30,0.00,,,0.00,WUHU216WMR100,2013-07-24 19:53:00,
2013-07-24 15:58:00,75.2,42.3,28.97,East,90,3.4,7.8,31,0.00,,,0.00,WUHU216WMR100,2013-07-24 19:58:00,
2013-07-24 16:03:00,75.9,42.9,28.97,ENE,67,3.6,7.8,31,0.00,,,0.00,WUHU216WMR100,2013-07-24 20:03:00,
2013-07-24 16:09:00,75.7,43.6,28.97,NNE,20,2.2,5.6,32,0.00,,,0.00,WUHU216WMR100,2013-07-24 20:09:00,
2013-07-24 16:14:00,77.4,44.2,28.97,NNW,331,2.4,5.6,31,0.00,,,0.00,WUHU216WMR100,2013-07-24 20:14:00,
2013-07-24 16:19:00,76.5,43.4,28.97,ENE,67,4.5,6.9,31,0.00,,,0.00,WUHU216WMR100,2013-07-24 20:19:00,
2013-07-24 16:24:00,74.7,42.7,28.97,ESE,112,3.4,6.9,32,0.00,,,0.00,WUHU216WMR100,2013-07-24 20:24:00,
2013-07-24 16:29:00,76.3,44.1,28.97,ESE,112,2.7,6.0,32,0.00,,,0.00,WUHU216WMR100,2013-07-24 20:29:00,
2013-07-24 16:34:00,77.9,44.7,28.97,ESE,112,3.6,5.8,31,0.00,,,0.00,WUHU216WMR100,2013-07-24 20:34:00,
2013-07-24 16:39:00,76.1,43.1,28.97,ESE,112,4.3,5.8,31,0.00,,,0.00,WUHU216WMR100,2013-07-24 20:39:00,
2013-07-24 16:44:00,74.7,42.7,28.97,NE,45,3.4,5.8,32,0.00,,,0.00,WUHU216WMR100,2013-07-24 20:44:00,
2013-07-24 16:49:00,75.7,42.7,28.97,NNE,22,3.5,8.5,31,0.00,,,0.00,WUHU216WMR100,2013-07-24 20:49:00,
2013-07-24 16:54:00,74.3,42.4,28.97,East,90,3.8,8.5,32,0.00,,,0.00,WUHU216WMR100,2013-07-24 20:54:00,
2013-07-24 16:59:00,73.2,42.2,28.97,East,90,4.0,5.8,33,0.00,,,0.00,WUHU216WMR100,2013-07-24 20:59:00,
2013-07-24 17:05:00,74.7,44.3,28.97,ENE,70,1.9,5.8,34,0.00,,,0.00,WUHU216WMR100,2013-07-24 21:05:00,
2013-07-24 17:10:00,73.6,42.5,28.97,ENE,65,2.8,6.5,33,0.00,,,0.00,WUHU216WMR100,2013-07-24 21:10:00,
2013-07-24 17:15:00,72.3,42.2,28.97,East,79,4.0,7.4,34,0.00,,,0.00,WUHU216WMR100,2013-07-24 21:15:00,
2013-07-24 17:20:00,74.5,44.1,28.97,North,8,2.5,7.4,34,0.00,,,0.00,WUHU216WMR100,2013-07-24 21:20:00,
2013-07-24 17:25:00,73.4,42.4,28.97,NE,45,0.2,5.8,33,0.00,,,0.00,WUHU216WMR100,2013-07-24 21:25:00,
2013-07-24 17:30:00,72.0,41.9,28.97,East,82,2.2,5.8,34,0.00,,,0.00,WUHU216WMR100,2013-07-24 21:30:00,
2013-07-24 17:35:00,74.1,43.8,28.97,East,90,3.4,5.8,34,0.00,,,0.00,WUHU216WMR100,2013-07-24 21:35:00,
2013-07-24 17:40:00,75.9,43.8,28.97,North,351,2.1,5.8,32,0.00,,,0.00,WUHU216WMR100,2013-07-24 21:40:00,
2013-07-24 17:45:00,76.5,44.3,28.97,North,0,3.6,5.8,32,0.00,,,0.00,WUHU216WMR100,2013-07-24 21:45:00,
2013-07-24 17:50:00,76.8,43.7,28.97,NNE,23,2.9,5.8,31,0.00,,,0.00,WUHU216WMR100,2013-07-24 21:50:00,
2013-07-24 17:55:00,75.6,41.8,28.97,ENE,68,2.2,6.0,30,0.00,,,0.00,WUHU216WMR100,2013-07-24 21:55:00,
2013-07-24 18:00:00,76.6,43.5,28.97,East,90,3.6,6.0,31,0.00,,,0.00,WUHU216WMR100,2013-07-24 22:00:00,
2013-07-24 18:05:00,76.6,43.5,28.97,North,2,2.8,5.6,31,0.00,,,0.00,WUHU216WMR100,2013-07-24 22:05:00,
2013-07-24 18:10:00,76.5,43.4,28.97,East,90,2.5,5.6,31,0.00,,,0.00,WUHU216WMR100,2013-07-24 22:10:00,
2013-07-24 18:15:00,76.6,43.5,28.97,North,0,2.7,4.0,31,0.00,,,0.00,WUHU216WMR100,2013-07-24 22:15:00,
2013-07-24 18:20:00,76.3,43.3,28.97,East,90,3.4,5.4,31,0.00,,,0.00,WUHU216WMR100,2013-07-24 22:20:00,
2013-07-24 18:25:00,76.1,43.1,28.97,ENE,67,4.0,5.6,31,0.00,,,0.00,WUHU216WMR100,2013-07-24 22:25:00,
2013-07-24 18:30:00,75.6,42.7,28.97,ENE,72,3.0,6.5,31,0.00,,,0.00,WUHU216WMR100,2013-07-24 22:30:00,
2013-07-24 18:35:00,75.2,42.3,28.97,ESE,112,4.3,7.6,31,0.00,,,0.00,WUHU216WMR100,2013-07-24 22:35:00,
2013-07-24 18:40:00,75.2,42.3,28.97,ENE,69,3.1,7.6,31,0.00,,,0.00,WUHU216WMR100,2013-07-24 22:40:00,
2013-07-24 18:45:00,75.4,43.3,28.97,East,90,1.9,5.6,32,0.00,,,0.00,WUHU216WMR100,2013-07-24 22:45:00,
2013-07-24 18:50:00,74.7,42.7,28.97,East,90,3.6,5.8,32,0.00,,,0.00,WUHU216WMR100,2013-07-24 22:50:00,
2013-07-24 18:55:00,74.5,42.5,28.97,NNW,348,2.0,5.8,32,0.00,,,0.00,WUHU216WMR100,2013-07-24 22:55:00,
2013-07-24 19:00:00,74.3,42.4,28.97,ENE,67,4.0,4.9,32,0.00,,,0.00,WUHU216WMR100,2013-07-24 23:00:00,
2013-07-24 19:05:00,74.1,43.0,28.97,ENE,67,2.0,4.9,33,0.00,,,0.00,WUHU216WMR100,2013-07-24 23:05:00,
2013-07-24 19:10:00,74.1,43.0,28.97,SE,135,3.8,5.6,33,0.00,,,0.00,WUHU216WMR100,2013-07-24 23:10:00,
2013-07-24 19:15:00,73.2,42.2,28.97,East,79,4.7,7.4,33,0.00,,,0.00,WUHU216WMR100,2013-07-24 23:15:00,
2013-07-24 19:20:00,73.2,42.2,28.97,ENE,67,2.2,7.4,33,0.00,,,0.00,WUHU216WMR100,2013-07-24 23:20:00,
2013-07-24 19:26:00,72.3,42.2,28.97,ENE,67,3.4,5.8,34,0.00,,,0.00,WUHU216WMR100,2013-07-24 23:26:00,
2013-07-24 19:31:00,72.0,41.9,28.97,ENE,65,3.2,5.8,34,0.00,,,0.00,WUHU216WMR100,2013-07-24 23:31:00,
2013-07-24 19:38:00,71.6,42.3,28.97,East,97,2.3,6.5,35,0.00,,,0.00,WUHU216WMR100,2013-07-24 23:38:00,
2013-07-24 19:43:00,71.4,42.9,28.97,ENE,67,2.0,6.5,36,0.00,,,0.00,WUHU216WMR100,2013-07-24 23:43:00,
2013-07-24 19:48:00,71.2,44.1,28.97,ENE,69,2.3,3.8,38,0.00,,,0.00,WUHU216WMR100,2013-07-24 23:48:00,
2013-07-24 19:53:00,71.2,43.4,28.97,ENE,67,0.5,3.6,37,0.00,,,0.00,WUHU216WMR100,2013-07-24 23:53:00,
2013-07-24 19:58:00,70.3,43.3,28.97,ENE,74,3.5,5.4,38,0.00,,,0.00,WUHU216WMR100,2013-07-24 23:58:00,
2013-07-24 20:03:00,69.6,43.4,28.97,NE,45,4.0,5.4,39,0.00,,,0.00,WUHU216WMR100,2013-07-25 00:03:00,
2013-07-24 20:09:00,68.9,42.8,28.97,ENE,67,1.6,5.4,39,0.00,,,0.00,WUHU216WMR100,2013-07-25 00:09:00,
2013-07-24 20:14:00,68.2,43.5,28.97,East,90,2.5,4.0,41,0.00,,,0.00,WUHU216WMR100,2013-07-25 00:14:00,
2013-07-24 20:19:00,67.6,44.2,28.97,East,90,1.3,3.8,43,0.00,,,0.00,WUHU216WMR100,2013-07-25 00:19:00,
2013-07-24 20:24:00,67.3,44.0,28.97,East,90,1.4,2.9,43,0.00,,,0.00,WUHU216WMR100,2013-07-25 00:24:00,
2013-07-24 20:29:00,66.9,44.2,28.97,East,90,0.0,2.9,44,0.00,,,0.00,WUHU216WMR100,2013-07-25 00:29:00,
2013-07-24 20:34:00,66.6,44.5,29.00,East,90,0.0,0.9,45,0.00,,,0.00,WUHU216WMR100,2013-07-25 00:34:00,
2013-07-24 20:39:00,66.2,44.2,29.00,East,90,0.0,0.0,45,0.00,,,0.00,WUHU216WMR100,2013-07-25 00:39:00,
2013-07-24 20:44:00,65.7,44.3,29.00,NNE,22,0.0,0.0,46,0.00,,,0.00,WUHU216WMR100,2013-07-25 00:44:00,
2013-07-24 20:49:00,65.5,44.7,29.00,NNE,22,0.0,0.0,47,0.00,,,0.00,WUHU216WMR100,2013-07-25 00:49:00,
2013-07-24 20:54:00,64.9,44.7,29.00,NNE,22,0.0,0.0,48,0.00,,,0.00,WUHU216WMR100,2013-07-25 00:54:00,
2013-07-24 20:59:00,64.4,44.8,29.00,NNE,22,0.0,0.0,49,0.00,,,0.00,WUHU216WMR100,2013-07-25 00:59:00,
2013-07-24 21:04:00,64.0,44.5,29.00,NNE,22,0.0,0.0,49,0.00,,,0.00,WUHU216WMR100,2013-07-25 01:04:00,
2013-07-24 21:09:00,63.9,45.5,29.00,NNE,22,0.0,0.0,51,0.00,,,0.00,WUHU216WMR100,2013-07-25 01:09:00,
2013-07-24 21:14:00,63.5,45.1,29.00,NNE,22,0.0,0.0,51,0.00,,,0.00,WUHU216WMR100,2013-07-25 01:14:00,
2013-07-24 21:19:00,63.1,45.2,29.00,NNE,22,0.0,0.0,52,0.00,,,0.00,WUHU216WMR100,2013-07-25 01:19:00,
2013-07-24 21:24:00,63.0,45.7,29.00,NNE,22,0.0,0.0,53,0.00,,,0.00,WUHU216WMR100,2013-07-25 01:24:00,
2013-07-24 21:29:00,62.6,45.8,29.00,NNE,22,0.0,0.0,54,0.00,,,0.00,WUHU216WMR100,2013-07-25 01:29:00,
2013-07-24 21:34:00,62.4,46.6,29.00,NNE,22,0.0,0.0,56,0.00,,,0.00,WUHU216WMR100,2013-07-25 01:34:00,
2013-07-24 21:39:00,62.2,46.9,29.00,NNE,22,0.0,0.0,57,0.00,,,0.00,WUHU216WMR100,2013-07-25 01:39:00,
2013-07-24 21:44:00,61.9,47.1,29.00,NNE,22,0.0,0.0,58,0.00,,,0.00,WUHU216WMR100,2013-07-25 01:44:00,
2013-07-24 21:49:00,61.7,47.4,29.00,NNE,22,0.0,0.0,59,0.00,,,0.00,WUHU216WMR100,2013-07-25 01:49:00,
2013-07-24 21:54:00,61.5,47.2,29.00,NNE,22,0.0,0.0,59,0.00,,,0.00,WUHU216WMR100,2013-07-25 01:54:00,
2013-07-24 21:59:00,61.3,47.4,29.00,NNE,22,0.0,0.0,60,0.00,,,0.00,WUHU216WMR100,2013-07-25 01:59:00,
2013-07-24 22:04:00,61.2,47.8,29.00,NNE,22,0.0,0.0,61,0.00,,,0.00,WUHU216WMR100,2013-07-25 02:04:00,
2013-07-24 22:09:00,61.2,48.2,29.00,NNE,22,0.0,0.0,62,0.00,,,0.00,WUHU216WMR100,2013-07-25 02:09:00,
2013-07-24 22:14:00,61.0,48.9,29.00,NNE,22,0.0,0.0,64,0.00,,,0.00,WUHU216WMR100,2013-07-25 02:14:00,
2013-07-24 22:19:00,61.0,48.5,29.00,NNE,22,0.0,0.0,63,0.00,,,0.00,WUHU216WMR100,2013-07-25 02:19:00,
2013-07-24 22:24:00,61.0,48.9,29.00,NNE,22,0.0,0.0,64,0.00,,,0.00,WUHU216WMR100,2013-07-25 02:24:00,
2013-07-24 22:29:00,61.0,48.9,29.00,NNE,22,0.0,0.0,64,0.00,,,0.00,WUHU216WMR100,2013-07-25 02:29:00,
2013-07-24 22:34:00,60.8,48.3,29.00,NNE,22,0.0,0.0,63,0.00,,,0.00,WUHU216WMR100,2013-07-25 02:34:00,
2013-07-24 22:39:00,60.6,48.1,29.00,NNE,22,0.0,0.0,63,0.00,,,0.00,WUHU216WMR100,2013-07-25 02:39:00,
2013-07-24 22:46:00,60.6,48.9,29.00,NNE,22,0.0,0.0,65,0.00,,,0.00,WUHU216WMR100,2013-07-25 02:46:00,
2013-07-24 22:51:00,60.4,48.3,29.00,NNE,22,0.0,0.0,64,0.00,,,0.00,WUHU216WMR100,2013-07-25 02:51:00,
2013-07-24 22:57:00,60.1,48.0,29.00,NNE,22,0.0,0.0,64,0.00,,,0.00,WUHU216WMR100,2013-07-25 02:57:00,
2013-07-24 23:02:00,59.9,48.3,29.00,NNE,22,0.0,0.0,65,0.00,,,0.00,WUHU216WMR100,2013-07-25 03:02:00,
2013-07-24 23:07:00,59.7,48.1,29.00,NNE,22,0.0,0.0,65,0.00,,,0.00,WUHU216WMR100,2013-07-25 03:07:00,
2013-07-24 23:12:00,59.7,48.5,29.00,NNE,22,0.0,0.0,66,0.00,,,0.00,WUHU216WMR100,2013-07-25 03:12:00,
2013-07-24 23:17:00,59.4,48.2,29.00,NNE,22,0.0,0.0,66,0.00,,,0.00,WUHU216WMR100,2013-07-25 03:17:00,
2013-07-24 23:22:00,59.2,48.0,29.00,NNE,22,0.0,0.0,66,0.00,,,0.00,WUHU216WMR100,2013-07-25 03:22:00,
2013-07-24 23:27:00,58.8,48.0,29.00,NNE,22,0.0,0.0,67,0.00,,,0.00,WUHU216WMR100,2013-07-25 03:27:00,
2013-07-24 23:32:00,58.8,48.0,29.00,North,0,0.0,0.0,67,0.00,,,0.00,WUHU216WMR100,2013-07-25 03:32:00,
2013-07-24 23:37:00,58.5,48.1,29.00,North,0,0.0,0.0,68,0.00,,,0.00,WUHU216WMR100,2013-07-25 03:37:00,
2013-07-24 23:42:00,58.3,47.9,29.00,North,0,0.0,0.0,68,0.00,,,0.00,WUHU216WMR100,2013-07-25 03:42:00,
2013-07-24 23:47:00,57.9,47.9,29.00,North,0,0.0,0.0,69,0.00,,,0.00,WUHU216WMR100,2013-07-25 03:47:00,
2013-07-24 23:52:00,57.7,47.7,29.00,North,0,0.0,0.0,69,0.00,,,0.00,WUHU216WMR100,2013-07-25 03:52:00,
2013-07-24 23:57:00,57.7,48.1,29.00,North,0,0.0,0.0,70,0.00,,,0.00,WUHU216WMR100,2013-07-25 03:57:00,